createdAt,value
2022-10-17T00:02:19.807Z,7.70
2022-10-17T00:04:46.748Z,7.80
2022-10-17T00:07:13.688Z,7.80
2022-10-17T00:09:44.057Z,7.80
2022-10-17T00:12:11.082Z,7.80
2022-10-17T00:14:38.383Z,7.80
2022-10-17T00:17:05.851Z,7.80
2022-10-17T00:19:32.814Z,7.90
2022-10-17T00:21:59.792Z,7.90
2022-10-17T00:24:26.678Z,7.90
2022-10-17T00:26:53.600Z,7.90
2022-10-17T00:29:20.525Z,8.00
2022-10-17T00:31:47.468Z,8.00
2022-10-17T00:34:14.396Z,8.00
2022-10-17T00:36:41.584Z,8.00
2022-10-17T00:39:09.476Z,8.00
2022-10-17T00:41:36.443Z,8.10
2022-10-17T00:44:22.181Z,8.30
2022-10-17T00:46:49.198Z,8.30
2022-10-17T00:49:16.174Z,8.30
2022-10-17T00:52:15.033Z,8.30
2022-10-17T00:54:46.568Z,8.30
2022-10-17T00:57:14.130Z,8.20
2022-10-17T00:59:43.337Z,8.10
2022-10-17T01:02:16.568Z,8.10
2022-10-17T01:04:47.719Z,8.10
2022-10-17T01:07:14.942Z,8.30
2022-10-17T01:09:45.340Z,8.40
2022-10-17T01:12:30.294Z,8.60
2022-10-17T01:15:24.140Z,8.60
2022-10-17T01:18:15.247Z,8.60
2022-10-17T01:21:04.219Z,8.70
2022-10-17T01:23:49.237Z,8.70
2022-10-17T01:26:53.912Z,8.80
2022-10-17T01:29:48.679Z,8.90
2022-10-17T01:32:21.523Z,8.90
2022-10-17T01:35:20.633Z,9.10
2022-10-17T01:38:06.698Z,9.20
2022-10-17T01:40:56.451Z,9.30
2022-10-17T01:43:26.017Z,9.40
2022-10-17T01:46:00.712Z,9.50
2022-10-17T01:48:34.451Z,9.60
2022-10-17T01:51:18.856Z,9.70
2022-10-17T01:54:01.691Z,9.80
2022-10-17T01:56:31.945Z,9.90
2022-10-17T01:59:26.683Z,9.90
2022-10-17T02:01:57.365Z,9.80
2022-10-17T02:04:25.551Z,9.80
2022-10-17T02:06:52.461Z,9.80
2022-10-17T02:09:27.318Z,9.80
2022-10-17T02:12:15.367Z,9.90
2022-10-17T02:15:06.629Z,9.90
2022-10-17T02:17:57.771Z,9.90
2022-10-17T02:20:30.430Z,10.00
2022-10-17T02:23:09.500Z,10.00
2022-10-17T02:25:42.860Z,10.00
2022-10-17T02:28:24.402Z,10.00
2022-10-17T02:31:11.920Z,10.00
2022-10-17T02:33:49.118Z,10.00
2022-10-17T02:36:22.098Z,10.00
2022-10-17T02:38:51.197Z,10.00
2022-10-17T02:41:20.475Z,10.10
2022-10-17T02:43:50.562Z,10.00
2022-10-17T02:46:21.939Z,9.90
2022-10-17T02:49:26.995Z,9.90
2022-10-17T02:52:07.706Z,9.80
2022-10-17T02:54:41.873Z,9.80
2022-10-17T02:57:18.035Z,9.70
2022-10-17T02:59:46.971Z,9.70
2022-10-17T03:02:13.878Z,9.60
2022-10-17T03:04:45.793Z,9.60
2022-10-17T03:07:13.050Z,9.60
2022-10-17T03:09:39.963Z,9.60
2022-10-17T03:12:06.941Z,9.60
2022-10-17T03:14:33.876Z,9.60
2022-10-17T03:17:00.946Z,9.60
2022-10-17T03:19:27.855Z,9.60
2022-10-17T03:21:54.915Z,9.60
2022-10-17T03:24:21.808Z,9.60
2022-10-17T03:26:48.743Z,9.60
2022-10-17T03:29:15.671Z,9.60
2022-10-17T03:31:42.631Z,9.60
2022-10-17T03:34:09.561Z,9.60
2022-10-17T03:36:36.512Z,9.60
2022-10-17T03:39:03.716Z,9.60
2022-10-17T03:41:30.584Z,9.50
2022-10-17T03:43:57.508Z,9.60
2022-10-17T03:46:24.421Z,9.60
2022-10-17T03:48:51.282Z,9.50
2022-10-17T03:51:18.216Z,9.50
2022-10-17T03:53:45.180Z,9.50
2022-10-17T03:56:13.022Z,9.50
2022-10-17T03:58:40.601Z,9.50
2022-10-17T04:01:09.909Z,9.40
2022-10-17T04:03:37.069Z,9.50
2022-10-17T04:06:05.161Z,9.40
2022-10-17T04:08:32.480Z,9.40
2022-10-17T04:11:04.611Z,9.40
2022-10-17T04:13:32.005Z,9.50
2022-10-17T04:16:04.971Z,9.40
2022-10-17T04:18:32.144Z,9.40
2022-10-17T04:21:03.161Z,9.40
2022-10-17T04:23:30.119Z,9.50
2022-10-17T04:26:00.923Z,9.50
2022-10-17T04:28:28.339Z,9.50
2022-10-17T04:30:59.511Z,9.50
2022-10-17T04:33:26.486Z,9.50
2022-10-17T04:36:05.407Z,9.50
2022-10-17T04:38:33.032Z,9.60
2022-10-17T04:41:04.607Z,9.60
2022-10-17T04:43:32.843Z,9.50
2022-10-17T04:46:01.257Z,9.50
2022-10-17T04:48:30.124Z,9.50
2022-10-17T04:51:02.247Z,9.50
2022-10-17T04:53:32.180Z,9.50
2022-10-17T04:55:59.221Z,9.60
2022-10-17T04:58:28.339Z,9.60
2022-10-17T05:00:55.325Z,9.60
2022-10-17T05:03:22.527Z,9.70
2022-10-17T05:05:49.473Z,9.70
2022-10-17T05:08:16.361Z,9.80
2022-10-17T05:10:46.146Z,9.70
2022-10-17T05:13:13.843Z,9.80
2022-10-17T05:15:40.771Z,9.80
2022-10-17T05:18:08.066Z,9.90
2022-10-17T05:20:35.053Z,10.00
2022-10-17T05:23:02.577Z,10.00
2022-10-17T05:25:29.504Z,10.00
2022-10-17T05:27:56.384Z,10.10
2022-10-17T05:30:23.299Z,10.20
2022-10-17T05:32:54.542Z,10.20
2022-10-17T05:35:22.298Z,10.20
2022-10-17T05:37:49.632Z,10.20
2022-10-17T05:40:16.709Z,10.30
2022-10-17T05:42:49.719Z,10.40
2022-10-17T05:45:17.119Z,10.40
2022-10-17T05:47:44.116Z,10.40
2022-10-17T05:50:11.235Z,10.50
2022-10-17T05:52:38.148Z,10.50
2022-10-17T05:55:06.298Z,10.60
2022-10-17T05:57:33.363Z,10.60
2022-10-17T06:00:00.976Z,10.50
2022-10-17T06:02:28.054Z,10.50
2022-10-17T06:04:55.338Z,10.50
2022-10-17T06:07:22.278Z,10.40
2022-10-17T06:09:49.158Z,10.30
2022-10-17T06:12:16.120Z,10.30
2022-10-17T06:14:43.047Z,10.30
2022-10-17T06:17:15.578Z,10.20
2022-10-17T06:19:44.827Z,10.10
2022-10-17T06:22:12.070Z,10.00
2022-10-17T06:24:39.050Z,10.00
2022-10-17T06:27:10.948Z,9.90
2022-10-17T06:29:39.216Z,9.90
2022-10-17T06:32:08.729Z,9.90
2022-10-17T06:34:38.348Z,10.00
2022-10-17T06:37:05.377Z,9.90
2022-10-17T06:39:34.052Z,10.00
2022-10-17T06:42:01.719Z,10.00
2022-10-17T06:44:31.720Z,10.00
2022-10-17T06:46:59.890Z,9.90
2022-10-17T06:49:27.609Z,9.90
2022-10-17T06:51:54.838Z,9.90
2022-10-17T06:54:21.958Z,9.80
2022-10-17T06:56:49.090Z,9.80
2022-10-17T06:59:16.203Z,9.70
2022-10-17T07:01:47.234Z,9.60
2022-10-17T07:04:14.926Z,9.70
2022-10-17T07:06:42.163Z,9.60
2022-10-17T07:09:09.686Z,9.50
2022-10-17T07:11:36.764Z,9.50
2022-10-17T07:14:03.892Z,9.50
2022-10-17T07:16:30.894Z,9.60
2022-10-17T07:18:57.877Z,9.70
2022-10-17T07:21:24.991Z,9.70
2022-10-17T07:23:52.019Z,9.80
2022-10-17T07:26:20.173Z,9.80
2022-10-17T07:28:55.488Z,9.80
2022-10-17T07:31:23.738Z,9.90
2022-10-17T07:33:51.671Z,10.00
2022-10-17T07:36:18.942Z,10.00
2022-10-17T07:38:45.923Z,10.00
2022-10-17T07:41:17.774Z,10.00
2022-10-17T07:43:48.067Z,10.00
2022-10-17T07:46:15.098Z,10.10
2022-10-17T07:48:42.438Z,10.10
2022-10-17T07:51:10.640Z,10.10
2022-10-17T07:53:39.804Z,10.20
2022-10-17T07:56:09.704Z,10.20
2022-10-17T07:58:40.369Z,10.20
2022-10-17T08:01:14.897Z,10.30
2022-10-17T08:03:44.603Z,10.30
2022-10-17T08:06:12.340Z,10.30
2022-10-17T08:08:39.538Z,10.30
2022-10-17T08:11:10.568Z,10.30
2022-10-17T08:13:38.582Z,10.40
2022-10-17T08:16:08.307Z,10.40
2022-10-17T08:18:36.763Z,10.50
2022-10-17T08:21:08.672Z,10.60
2022-10-17T08:23:36.883Z,10.60
2022-10-17T08:26:06.836Z,10.70
2022-10-17T08:28:36.136Z,10.70
2022-10-17T08:31:08.678Z,10.70
2022-10-17T08:33:35.897Z,10.80
2022-10-17T08:36:04.411Z,10.80
2022-10-17T08:38:35.573Z,10.90
2022-10-17T08:41:35.255Z,11.00
2022-10-17T08:44:11.540Z,11.00
2022-10-17T08:46:41.445Z,11.10
2022-10-17T08:49:19.764Z,11.10
2022-10-17T08:51:54.579Z,11.30
2022-10-17T08:54:43.414Z,11.40
2022-10-17T08:57:13.710Z,11.40
2022-10-17T08:59:41.486Z,11.60
2022-10-17T09:02:20.193Z,11.90
2022-10-17T09:05:26.431Z,12.40
2022-10-17T09:08:22.442Z,12.80
2022-10-17T09:11:06.374Z,13.30
2022-10-17T09:13:48.485Z,13.60
2022-10-17T09:17:09.699Z,13.80
2022-10-17T09:19:53.378Z,14.20
2022-10-17T09:22:24.231Z,14.20
2022-10-17T09:24:56.047Z,13.80
2022-10-17T09:27:38.998Z,13.80
2022-10-17T09:30:44.638Z,13.50
2022-10-17T09:33:23.365Z,13.10
2022-10-17T09:36:02.125Z,12.80
2022-10-17T09:38:39.278Z,12.50
2022-10-17T09:41:39.157Z,12.50
2022-10-17T09:44:12.769Z,12.20
2022-10-17T09:46:39.793Z,12.10
2022-10-17T09:49:17.224Z,12.00
2022-10-17T09:51:44.977Z,11.90
2022-10-17T09:54:26.677Z,11.80
2022-10-17T09:57:06.045Z,11.80
2022-10-17T10:00:01.421Z,11.90
2022-10-17T10:02:31.218Z,11.90
2022-10-17T10:05:16.349Z,12.00
2022-10-17T10:07:46.108Z,12.10
2022-10-17T10:10:32.235Z,12.10
2022-10-17T10:13:20.581Z,12.10
2022-10-17T10:15:50.760Z,12.00
2022-10-17T10:18:26.673Z,11.90
2022-10-17T10:21:18.399Z,11.90
2022-10-17T10:24:06.907Z,11.70
2022-10-17T10:26:46.762Z,11.60
2022-10-17T10:29:38.327Z,11.60
2022-10-17T10:32:12.079Z,11.50
2022-10-17T10:35:05.403Z,11.50
2022-10-17T10:37:49.552Z,11.60
2022-10-17T10:40:19.048Z,11.50
2022-10-17T10:42:55.386Z,11.50
2022-10-17T10:45:48.101Z,11.50
2022-10-17T10:48:21.633Z,11.40
2022-10-17T10:50:57.421Z,11.50
2022-10-17T10:53:50.054Z,11.60
2022-10-17T10:56:40.722Z,12.00
2022-10-17T10:59:19.733Z,12.90
2022-10-17T11:01:58.613Z,13.70
2022-10-17T11:04:59.793Z,14.00
2022-10-17T11:07:39.569Z,14.50
2022-10-17T11:10:12.794Z,14.80
2022-10-17T11:13:26.571Z,14.30
2022-10-17T11:16:16.915Z,13.80
2022-10-17T11:18:52.639Z,13.20
2022-10-17T11:21:37.107Z,13.00
2022-10-17T11:24:09.245Z,12.80
2022-10-17T11:26:45.174Z,12.60
2022-10-17T11:29:13.859Z,12.40
2022-10-17T11:31:50.534Z,12.30
2022-10-17T11:34:25.386Z,12.20
2022-10-17T11:36:58.038Z,12.00
2022-10-17T11:39:53.971Z,11.80
2022-10-17T11:42:39.668Z,11.80
2022-10-17T11:45:15.793Z,12.40
2022-10-17T11:47:58.910Z,13.00
2022-10-17T11:53:24.317Z,13.80
2022-10-17T11:55:54.571Z,14.00
2022-10-17T11:58:31.260Z,14.30
2022-10-17T12:01:12.885Z,14.50
2022-10-17T12:04:18.333Z,14.60
2022-10-17T12:06:48.344Z,14.20
2022-10-17T12:09:27.144Z,14.50
2022-10-17T12:11:58.771Z,15.00
2022-10-17T12:14:46.790Z,15.30
2022-10-17T12:17:33.016Z,15.80
2022-10-17T12:20:25.348Z,16.10
2022-10-17T12:23:03.047Z,16.40
2022-10-17T12:25:33.787Z,16.50
2022-10-17T12:28:06.655Z,16.60
2022-10-17T12:30:34.389Z,15.90
2022-10-17T12:33:11.490Z,15.30
2022-10-17T12:35:39.151Z,14.90
2022-10-17T12:38:18.096Z,14.90
2022-10-17T12:40:49.022Z,14.50
2022-10-17T12:43:16.090Z,14.20
2022-10-17T12:45:53.424Z,14.00
2022-10-17T12:48:39.029Z,13.90
2022-10-17T12:54:14.012Z,14.20
2022-10-17T12:56:52.713Z,15.00
2022-10-17T12:59:29.163Z,15.60
2022-10-17T13:02:02.389Z,16.10
2022-10-17T13:04:30.861Z,16.30
2022-10-17T13:07:00.779Z,16.60
2022-10-17T13:09:31.612Z,16.90
2022-10-17T13:12:01.778Z,17.10
2022-10-17T13:14:29.888Z,17.30
2022-10-17T13:17:02.359Z,17.50
2022-10-17T13:19:47.214Z,17.50
2022-10-17T13:22:24.144Z,17.50
2022-10-17T13:24:53.260Z,17.60
2022-10-17T13:27:32.273Z,17.40
2022-10-17T13:30:01.095Z,17.20
2022-10-17T13:32:37.954Z,16.50
2022-10-17T13:35:14.086Z,15.70
2022-10-17T13:37:43.920Z,15.20
2022-10-17T13:40:49.572Z,14.70
2022-10-17T13:43:26.265Z,14.40
2022-10-17T13:46:19.208Z,14.10
2022-10-17T13:48:50.276Z,13.80
2022-10-17T13:51:17.350Z,13.60
2022-10-17T13:53:44.627Z,13.40
2022-10-17T13:56:28.261Z,13.30
2022-10-17T13:59:17.447Z,13.20
2022-10-17T14:01:44.568Z,13.20
2022-10-17T14:04:19.613Z,13.20
2022-10-17T14:06:49.755Z,13.20
2022-10-17T14:09:27.853Z,13.30
2022-10-17T14:12:12.884Z,13.40
2022-10-17T14:15:09.240Z,13.40
2022-10-17T14:17:34.463Z,13.50
2022-10-17T14:20:33.990Z,13.60
2022-10-17T14:23:17.395Z,13.60
2022-10-17T14:25:41.078Z,13.60
2022-10-17T14:28:09.622Z,13.50
2022-10-17T14:30:55.815Z,13.40
2022-10-17T14:33:24.717Z,13.30
2022-10-17T14:35:57.627Z,13.20
2022-10-17T14:38:25.443Z,13.10
2022-10-17T14:41:09.597Z,13.10
2022-10-17T14:43:42.647Z,13.00
2022-10-17T14:46:15.935Z,13.00
2022-10-17T14:48:43.525Z,12.90
2022-10-17T14:51:17.019Z,12.80
2022-10-17T14:54:22.272Z,12.70
2022-10-17T14:56:54.374Z,12.70
2022-10-17T14:59:51.717Z,12.60
2022-10-17T15:02:14.778Z,12.60
2022-10-17T15:04:42.218Z,12.60
2022-10-17T15:07:17.039Z,12.50
2022-10-17T15:09:44.975Z,12.50
2022-10-17T15:12:17.516Z,12.40
2022-10-17T15:14:45.733Z,12.50
2022-10-17T15:17:16.174Z,12.60
2022-10-17T15:19:43.092Z,12.60
2022-10-17T15:22:10.193Z,12.50
2022-10-17T15:24:37.167Z,12.50
2022-10-17T15:27:13.376Z,12.40
2022-10-17T15:29:40.298Z,12.40
2022-10-17T15:32:07.197Z,12.30
2022-10-17T15:34:34.196Z,12.30
2022-10-17T15:37:01.317Z,12.20
2022-10-17T15:39:28.208Z,12.30
2022-10-17T15:41:55.210Z,12.20
2022-10-17T15:44:22.824Z,12.20
2022-10-17T15:46:49.720Z,12.10
2022-10-17T15:49:19.882Z,12.10
2022-10-17T15:51:49.327Z,12.10
2022-10-17T15:54:17.316Z,12.10
2022-10-17T15:56:53.175Z,12.00
2022-10-17T15:59:30.997Z,12.00
2022-10-17T16:01:57.947Z,12.00
2022-10-17T16:04:27.241Z,12.00
2022-10-17T16:06:54.138Z,12.00
2022-10-17T16:09:21.037Z,11.90
2022-10-17T16:11:47.942Z,11.80
2022-10-17T16:14:16.935Z,11.70
2022-10-17T16:16:44.648Z,11.70
2022-10-17T16:19:12.381Z,11.60
2022-10-17T16:21:40.973Z,11.60
2022-10-17T16:24:13.112Z,11.60
2022-10-17T16:26:40.856Z,11.60
2022-10-17T16:29:09.381Z,11.60
2022-10-17T16:31:40.509Z,11.60
2022-10-17T16:34:08.949Z,11.60
2022-10-17T16:36:36.017Z,11.60
2022-10-17T16:39:03.626Z,11.60
2022-10-17T16:41:32.879Z,11.60
2022-10-17T16:44:05.833Z,11.60
2022-10-17T16:46:33.945Z,11.60
2022-10-17T16:49:00.894Z,11.50
2022-10-17T16:51:29.208Z,11.50
2022-10-17T16:53:57.110Z,11.40
2022-10-17T16:56:25.103Z,11.40
2022-10-17T16:58:53.108Z,11.50
2022-10-17T17:01:23.433Z,11.50
2022-10-17T17:03:51.877Z,11.50
2022-10-17T17:06:21.657Z,11.50
2022-10-17T17:08:48.825Z,11.40
2022-10-17T17:11:19.792Z,11.30
2022-10-17T17:13:46.783Z,11.30
2022-10-17T17:16:16.561Z,11.20
2022-10-17T17:18:43.607Z,11.20
2022-10-17T17:21:11.018Z,11.20
2022-10-17T17:23:40.997Z,11.20
2022-10-17T17:26:11.818Z,11.20
2022-10-17T17:28:39.646Z,11.20
2022-10-17T17:31:11.378Z,11.20
2022-10-17T17:33:39.912Z,11.20
2022-10-17T17:36:08.092Z,11.20
2022-10-17T17:38:36.682Z,11.20
2022-10-17T17:41:04.320Z,11.20
2022-10-17T17:43:31.324Z,11.20
2022-10-17T17:46:01.433Z,11.10
2022-10-17T17:48:28.356Z,11.10
2022-10-17T17:50:55.365Z,11.00
2022-10-17T17:53:22.516Z,11.10
2022-10-17T17:56:00.407Z,11.00
2022-10-17T17:58:27.324Z,11.00
2022-10-17T18:00:54.377Z,10.90
2022-10-17T18:03:21.360Z,10.90
2022-10-17T18:05:48.260Z,10.70
2022-10-17T18:08:15.137Z,10.60
2022-10-17T18:10:46.683Z,10.60
2022-10-17T18:13:13.568Z,10.60
2022-10-17T18:15:44.959Z,10.50
2022-10-17T18:18:11.922Z,10.50
2022-10-17T18:20:42.840Z,10.50
2022-10-17T18:23:10.744Z,10.40
2022-10-17T18:25:37.770Z,10.40
2022-10-17T18:28:05.072Z,10.40
2022-10-17T18:30:34.432Z,10.40
2022-10-17T18:33:01.513Z,10.40
2022-10-17T18:35:28.505Z,10.40
2022-10-17T18:37:57.096Z,10.50
2022-10-17T18:40:24.078Z,10.50
2022-10-17T18:42:51.052Z,10.50
2022-10-17T18:45:18.002Z,10.50
2022-10-17T18:47:47.380Z,10.50
2022-10-17T18:50:15.311Z,10.40
2022-10-17T18:52:42.220Z,10.40
2022-10-17T18:55:09.592Z,10.30
2022-10-17T18:57:36.465Z,10.30
2022-10-17T19:00:04.603Z,10.20
2022-10-17T19:02:35.534Z,10.20
2022-10-17T19:05:05.093Z,10.10
2022-10-17T19:07:32.615Z,10.00
2022-10-17T19:09:59.719Z,10.10
2022-10-17T19:12:26.780Z,10.10
2022-10-17T19:14:53.873Z,10.00
2022-10-17T19:17:20.762Z,10.10
2022-10-17T19:19:50.318Z,10.00
2022-10-17T19:22:17.267Z,10.00
2022-10-17T19:24:44.152Z,9.90
2022-10-17T19:27:12.279Z,9.90
2022-10-17T19:29:43.542Z,9.80
2022-10-17T19:32:15.735Z,9.80
2022-10-17T19:34:45.143Z,9.70
2022-10-17T19:37:12.096Z,9.70
2022-10-17T19:39:39.223Z,9.60
2022-10-17T19:42:07.092Z,9.60
2022-10-17T19:44:34.745Z,9.60
2022-10-17T19:47:01.628Z,9.60
2022-10-17T19:49:28.702Z,9.50
2022-10-17T19:51:55.821Z,9.50
2022-10-17T19:54:23.517Z,9.50
2022-10-17T19:56:50.677Z,9.50
2022-10-17T19:59:17.941Z,9.50
2022-10-17T20:01:45.467Z,9.50
2022-10-17T20:04:13.168Z,9.50
2022-10-17T20:06:41.006Z,9.50
2022-10-17T20:09:11.080Z,9.60
2022-10-17T20:11:41.009Z,9.60
2022-10-17T20:14:08.581Z,9.60
2022-10-17T20:16:36.485Z,9.60
2022-10-17T20:19:13.655Z,9.60
2022-10-17T20:21:40.727Z,9.50
2022-10-17T20:24:10.069Z,9.60
2022-10-17T20:26:39.187Z,9.60
2022-10-17T20:29:18.183Z,9.70
2022-10-17T20:31:46.565Z,9.70
2022-10-17T20:34:16.289Z,9.70
2022-10-17T20:36:43.705Z,9.70
2022-10-17T20:39:12.826Z,9.70
2022-10-17T20:41:40.094Z,9.70
2022-10-17T20:44:07.527Z,9.80
2022-10-17T20:46:37.593Z,9.80
2022-10-17T20:49:08.110Z,9.70
2022-10-17T20:51:35.766Z,9.70
2022-10-17T20:54:03.559Z,9.70
2022-10-17T20:56:31.922Z,9.70
2022-10-17T20:59:01.326Z,9.70
2022-10-17T21:01:29.545Z,9.70
2022-10-17T21:03:59.659Z,9.70
2022-10-17T21:06:29.542Z,9.70
2022-10-17T21:08:57.187Z,9.60
2022-10-17T21:11:27.129Z,9.70
2022-10-17T21:14:03.044Z,9.60
2022-10-17T21:16:31.497Z,9.60
2022-10-17T21:18:58.952Z,9.60
2022-10-17T21:21:32.765Z,9.50
2022-10-17T21:24:06.021Z,9.50
2022-10-17T21:26:34.936Z,9.60
2022-10-17T21:29:05.666Z,9.60
2022-10-17T21:31:35.284Z,9.60
2022-10-17T21:34:07.088Z,9.50
2022-10-17T21:36:34.017Z,9.50
2022-10-17T21:39:01.048Z,9.50
2022-10-17T21:41:29.444Z,9.50
2022-10-17T21:44:00.411Z,9.40
2022-10-17T21:46:27.959Z,9.50
2022-10-17T21:48:55.306Z,9.50
2022-10-17T21:51:24.067Z,9.40
2022-10-17T21:53:52.523Z,9.40
2022-10-17T21:56:21.666Z,9.30
2022-10-17T21:58:49.958Z,9.30
2022-10-17T22:01:23.175Z,9.30
2022-10-17T22:03:52.557Z,9.30
2022-10-17T22:09:13.836Z,9.20
2022-10-17T22:11:41.282Z,9.20
2022-10-17T22:14:13.405Z,9.20
2022-10-17T22:16:40.859Z,9.10
2022-10-17T22:19:08.875Z,9.00
2022-10-17T22:21:37.646Z,9.00
2022-10-17T22:24:07.482Z,9.00
2022-10-17T22:26:36.575Z,9.00
2022-10-17T22:29:05.051Z,9.00
2022-10-17T22:31:32.362Z,9.00
2022-10-17T22:33:59.610Z,9.00
2022-10-17T22:36:26.710Z,9.00
2022-10-17T22:38:53.613Z,9.10
2022-10-17T22:41:21.086Z,9.10
2022-10-17T22:43:48.284Z,9.10
2022-10-17T22:46:18.793Z,9.10
2022-10-17T22:48:46.615Z,9.10
2022-10-17T22:51:13.851Z,9.10
2022-10-17T22:53:41.027Z,9.20
2022-10-17T22:56:16.913Z,9.20
2022-10-17T22:58:43.827Z,9.20
2022-10-17T23:01:17.826Z,9.20
2022-10-17T23:03:45.317Z,9.20
2022-10-17T23:06:13.073Z,9.20
2022-10-17T23:08:40.904Z,9.20
2022-10-17T23:11:08.394Z,9.20
2022-10-17T23:13:35.894Z,9.20
2022-10-17T23:16:03.683Z,9.20
2022-10-17T23:21:02.424Z,9.20
2022-10-17T23:23:29.346Z,9.20
2022-10-17T23:26:02.727Z,9.20
2022-10-17T23:28:30.214Z,9.20
2022-10-17T23:30:57.142Z,9.00
2022-10-17T23:33:24.026Z,9.00
2022-10-17T23:35:50.932Z,9.00
2022-10-17T23:38:17.822Z,9.00
2022-10-17T23:40:44.730Z,9.00
2022-10-17T23:43:11.634Z,9.00
2022-10-17T23:48:10.268Z,9.00
2022-10-17T23:50:37.359Z,9.00
2022-10-17T23:53:04.219Z,9.10
2022-10-17T23:55:31.290Z,9.00
2022-10-17T23:57:58.436Z,9.00
